Details From MKJS - Montego Bay Sangster Intl
To TFFR - Pointe A Pitre Le Raizet
Flight Number -
Tags Generated
Created
Modified
Stats Distance 948 nm / 1,756 km
Max Altitude 0 ft / 0 m
Waypoints 5
Social Downloads 2
Likes 0
Share VATSIM

Download

Looking for another format? Having issues loading an existing format? Contact us
Advertisement - Login to hide

Notes

Generated

Route

MKJS CAY KARIB PPR95 TFFR

ID Type Via Altitude Latitude Longitude Leg Dist Tot Dist Heading (true) Name
O MKJS APT - 0 ft / 0 m 18.49873˚ -77.92482˚ - 0 nm - -
CAY NDB - 0 ft / 0 m 18.26734˚ -73.78298˚ 236 nm 236 nm 93° / 94° CAYES NDB
KARIB FIX - 0 ft / 0 m 17.66642˚ -69.31700˚ 257 nm 494 nm 97° / 99° -
PPR95 FIX - 0 ft / 0 m 16.28399˚ -61.62459˚ 449 nm 943 nm 100° / 102° -
O TFFR APT - 0 ft / 0 m 16.26830˚ -61.54794˚ 4 nm 948 nm 102° / 102° -

Altitude Profile

Advertisement - Login to hide

Weather


0- 5 10 15 20 25 30 35+ Temperature / ° C

Clouds and Precipitation
Forecast for 2017-12-17 06:00 UTC. Updated an hour ago

Ground ~20,000 ft ~40,000 ft Winds

MKJS

Details ICAO MKJS (MBJ)
Name Sangster Intl
Region Jamaica
Timezone America/Jamaica (UTC-5.0)
Stats Elevation 6 ft / 2 m (AMSL)
Location 18.503549° -77.913698°
Runways 1
Magnetic Variation 6.956° W

METAR

MKJS 170600Z 09007KT 9999 FEW022 26/23 Q1016

Decode

TAF

TAF MKJS 170515Z 1706/1806 14005KT 9999 FEW024 BECMG 1712/1714 05015KT FEW022CB BECMG 1800/1802 14005KT FEW024

Decode

Departure Runways

ID Width Length Bearing (true) Bearing (mag) Surface Threshold Offset Overrun Length
07 161 ft / 49 m 8,495 ft / 2,589 m 65.37° 72.33° Asphalt 220 ft / 67 m 312 ft / 95 m
25 161 ft / 49 m 8,495 ft / 2,589 m 245.37° 252.33° Asphalt 577 ft / 176 m 200 ft / 61 m

TFFR

Details ICAO TFFR (PTP)
Name Pointe a Pitre Le Raizet
Region France (Guadeloupe, Martinique, Saint Barthélemy, Saint Martin)
Timezone America/Guadeloupe (UTC-4.0)
Stats Elevation 35 ft / 11 m (AMSL)
Location 16.265306° -61.531808°
Runways 1
Magnetic Variation 14.857° W

METAR

TFFR 170600Z AUTO VRB01KT 9999 FEW026 23/20 Q1015 TEMPO 4000 SHRA SCT015TCU

Decode

TAF

Not found

Destination Runways

ID Width Length Bearing (true) Bearing (mag) Surface Threshold Offset Overrun Length
11 148 ft / 45 m 11,513 ft / 3,509 m 100.94° 115.80° Asphalt 0 ft / 0 m 0 ft / 0 m
29 148 ft / 45 m 11,513 ft / 3,509 m 280.95° 295.81° Asphalt 0 ft / 0 m 0 ft / 0 m

Approach Navaids

Runway Type Ident Frequency Range Bearing (true) Bearing (mag) Slope Elevation
11 Localiser PP 110.30 MHz 18 nm / 33 km 100.95° 115.81° - 36 ft / 11 m (AMSL)
11 Glidescope PP 110.30 MHz 10 nm / 19 km 100.94° 115.80° 3.20° 36 ft / 11 m (AMSL)

Popular Alternatives